Aérodrome :
LOGIN :

S'inscrire | Disclaimer

   EN    FR    IT 

 










Légende :    VFR   VFR Marginal   IFR   IFR Intensif   IFR Très Intensif
Visi : 
Plafond : 
>= 8 km
>= 3000ft
5 à 8 km
1000 à 3000 ft
1500m à 5 km
500 à 1000 ft
800 à 1500m
200 à 500 ft
< 800m
< 200 ft
Symboles :   Orages  Brouillard  Fortes neiges  Fortes précipitations  Vent > 20 kt
SIGMETs :   Divers  Orages  Givrage  Turbulence  Onde Orograph.  Cendres Volcan.






- Altitude de l'aérodrome : 2077 ft
- Code IATA : FMM


EDJA - Memmingen

DERNIER METAR :
  • 211420Z 32007KT 280V350 9999 FEW013 03/01 Q1016

METARs EXPIRÉS :
  • 211350Z 29010KT 260V320 9999 SCT014 BKN034 03/01 Q1016
  • 211320Z 29009KT 9999 -RA FEW008 BKN010 OVC031 03/02 Q1016
  • 211250Z 31005KT 280V350 9999 VCSH OVC011 03/01 Q1016
  • 211220Z 35007KT 9999 -SNRA BKN010 BKN016 OVC024 03/01 Q1016
  • 211150Z 35006KT 320V020 9999 SCT007 BKN010 OVC028 02/01 Q1016
  • 211120Z 33007KT 9999 -SN SCT004 BKN007 OVC022 01/01 Q1016
  • 211050Z 34010KT 300V010 4600 -SN SCT002 BKN006 OVC024 01/01 Q1016
  • 211020Z 33007KT 3300 -SN SCT002 OVC005 01/00 Q1016 RESN
  • 210950Z 33007KT 3000 SN OVC004 01/01 Q1015

TAF TAF EDJA
Valide du 21 à 15h jusqu'au 22 à 00h UTC


211400Z 2115/2124 32006KT 9999 FEW008 SCT010 BKN020
TEMPO 2115/2124 4000 -SHSN BKN012TCU
PROB30
TEMPO 2115/2124 1500 SHSN BKN004 BKN012TCU
BECMG 2121/2123 02005KT



MET'MAP, la Météo Aéronautique d'un coup d'oeil ! - Copyright ORBIFLY Décembre 2007 - Disclaimer

ORBIFLY MET'MAP TEAM :

Programmation & Développement : Alexandra Zaïnal
Sur une idée originale de : Baudouin d'Aumeries
Soutien technique & logistique : Manuel Goepfert
Assistance : Marc-Olivier Méhu




SOURCES & CREDITS :

   NOAA